Řízení letového provozu České republiky
OPMET data - Ceska Republika Aktualizace: 22.09.2019 09:55:25  UTC
SIGMET / AIRMET - NIL
Warning / Vystraha - NIL
AIREP - NIL
REG QNH
REGIONAL QNH FORECAST ISSUED 2019-09-22 08:43 AREA VALID FM/TL QNH/HPA/ : LKAA 220900/221200 1013 =
 
METAR / SPECI
METAR LKBC 220930Z AUTO 11006KT 080V140 CAVOK 15/05 Q1016=
METAR LKCV 220900Z 12011KT CAVOK 17/05 Q1017 NOSIG RMK BLU BLU=
METAR LKKB 220900Z 08009KT CAVOK 15/06 Q1017 NOSIG RMK BLU BLU=
METAR LKKU NIL
METAR LKKV 220930Z 04007KT 360V070 CAVOK 15/05 Q1016 RMK REG QNH 1013=
METAR LKLN 221000Z AUTO 06006KT 310V090 CAVOK 17/08 Q1015=
METAR LKMT 220930Z 20010KT 160V230 CAVOK 18/05 Q1019 NOSIG RMK REG QNH 1013=
SPECI LKNA 220939Z /////KT 3000 VV/// 15/// Q1017 RMK YLO=
METAR LKPD 220900Z 09009KT 070V130 CAVOK 18/05 Q1017 NOSIG RMK BLU BLU=
METAR LKPJ 220900Z AUTO 10006KT 070V140 CAVOK ///// Q////=
METAR LKPR 220930Z 12007KT 070V160 CAVOK 15/05 Q1016 NOSIG RMK REG QNH 1013=
METAR LKTB 220930Z 12014KT 090V170 CAVOK 17/03 Q1018 NOSIG RMK REG QNH 1013=
METAR LKVO 220900Z 09010KT CAVOK 16/05 Q1017=
TAF
TAF LKBC NIL
TAF LKCV 220500Z 2206/2306 08005KT CAVOK      BECMG 2207/2209 14010KT      TEMPO 2212/2218 14010G20KT      BECMG 2218/2220 11005KT=
TAF LKKB 220500Z 2206/2306 07006KT CAVOK      TEMPO 2210/2217 13010KT=
TAF LKKU NIL
TAF LKKV 220500Z 2206/2312 09006KT CAVOK      BECMG 2300/2302 VRB02KT=
TAF LKLN NIL
TAF LKMT 220500Z 2206/2312 22010KT CAVOK      BECMG 2219/2221 VRB02KT      BECMG 2307/2309 03006KT=
TAF LKNA 220500Z 2206/2306 12010KT CAVOK      TEMPO 2208/2216 15014KT=
TAF LKPD 220500Z 2206/2306 11005KT CAVOK      BECMG 2209/2211 13010KT      TEMPO 2212/2216 13010G20KT      BECMG 2217/2219 11005KT=
TAF LKPJ NIL
TAF LKPR 220500Z 2206/2312 12006KT CAVOK      BECMG 2302/2304 VRB02KT      BECMG 2306/2308 07004KT=
TAF LKTB 220500Z 2206/2312 09008KT CAVOK      TEMPO 2209/2216 12012G24KT      BECMG 2309/2312 9999 BKN025=
TAF LKVO NIL